sensor_id;sensor_type;location;lat;lon;timestamp;temperature;humidity
22680;DHT22;11507;44.858;10.374;2023-02-24T00:01:21;5.00;99.90
22680;DHT22;11507;44.858;10.374;2023-02-24T00:03:53;5.00;99.90
22680;DHT22;11507;44.858;10.374;2023-02-24T00:06:22;5.00;99.90
22680;DHT22;11507;44.858;10.374;2023-02-24T00:08:47;5.10;99.90
22680;DHT22;11507;44.858;10.374;2023-02-24T00:11:14;5.20;99.90
22680;DHT22;11507;44.858;10.374;2023-02-24T00:13:42;5.20;99.90
22680;DHT22;11507;44.858;10.374;2023-02-24T00:16:14;5.10;99.90
22680;DHT22;11507;44.858;10.374;2023-02-24T00:18:44;5.00;99.90
22680;DHT22;11507;44.858;10.374;2023-02-24T00:21:13;5.00;99.90
22680;DHT22;11507;44.858;10.374;2023-02-24T00:23:41;4.90;99.90
22680;DHT22;11507;44.858;10.374;2023-02-24T00:26:08;4.90;99.90
22680;DHT22;11507;44.858;10.374;2023-02-24T00:28:34;4.90;99.90
22680;DHT22;11507;44.858;10.374;2023-02-24T00:31:04;4.80;99.90
22680;DHT22;11507;44.858;10.374;2023-02-24T00:33:30;4.70;99.90
22680;DHT22;11507;44.858;10.374;2023-02-24T00:36:03;4.70;99.90
22680;DHT22;11507;44.858;10.374;2023-02-24T00:38:29;4.70;99.90
22680;DHT22;11507;44.858;10.374;2023-02-24T00:41:01;4.50;99.90
22680;DHT22;11507;44.858;10.374;2023-02-24T00:43:27;4.50;99.90
22680;DHT22;11507;44.858;10.374;2023-02-24T00:45:53;4.50;99.90
22680;DHT22;11507;44.858;10.374;2023-02-24T00:48:19;4.50;99.90
22680;DHT22;11507;44.858;10.374;2023-02-24T00:50:46;4.50;99.90
22680;DHT22;11507;44.858;10.374;2023-02-24T00:53:12;4.50;99.90
22680;DHT22;11507;44.858;10.374;2023-02-24T00:55:37;4.50;99.90
22680;DHT22;11507;44.858;10.374;2023-02-24T00:58:04;4.50;99.90
22680;DHT22;11507;44.858;10.374;2023-02-24T01:00:31;4.50;99.90
22680;DHT22;11507;44.858;10.374;2023-02-24T01:03:01;4.50;99.90
22680;DHT22;11507;44.858;10.374;2023-02-24T01:05:29;4.50;99.90
22680;DHT22;11507;44.858;10.374;2023-02-24T01:07:56;4.50;99.90
22680;DHT22;11507;44.858;10.374;2023-02-24T01:10:22;4.50;99.90
22680;DHT22;11507;44.858;10.374;2023-02-24T01:12:51;4.40;99.90
22680;DHT22;11507;44.858;10.374;2023-02-24T01:15:20;4.40;99.90
22680;DHT22;11507;44.858;10.374;2023-02-24T01:17:47;4.30;99.90
22680;DHT22;11507;44.858;10.374;2023-02-24T01:20:12;4.30;99.90
22680;DHT22;11507;44.858;10.374;2023-02-24T01:22:47;4.20;99.90
22680;DHT22;11507;44.858;10.374;2023-02-24T01:25:14;4.20;99.90
22680;DHT22;11507;44.858;10.374;2023-02-24T01:27:40;4.20;99.90
22680;DHT22;11507;44.858;10.374;2023-02-24T01:30:07;4.20;99.90
22680;DHT22;11507;44.858;10.374;2023-02-24T01:32:38;4.20;99.90
22680;DHT22;11507;44.858;10.374;2023-02-24T01:35:04;4.20;99.90
22680;DHT22;11507;44.858;10.374;2023-02-24T01:37:30;4.20;99.90
22680;DHT22;11507;44.858;10.374;2023-02-24T01:39:56;4.10;99.90
22680;DHT22;11507;44.858;10.374;2023-02-24T01:42:24;4.00;99.90
22680;DHT22;11507;44.858;10.374;2023-02-24T01:47:19;3.80;99.90
22680;DHT22;11507;44.858;10.374;2023-02-24T01:49:46;3.70;99.90
22680;DHT22;11507;44.858;10.374;2023-02-24T01:52:28;3.70;99.90
22680;DHT22;11507;44.858;10.374;2023-02-24T01:54:56;3.70;99.90
22680;DHT22;11507;44.858;10.374;2023-02-24T01:57:24;3.60;99.90
22680;DHT22;11507;44.858;10.374;2023-02-24T01:59:51;3.60;99.90
22680;DHT22;11507;44.858;10.374;2023-02-24T02:02:18;3.60;99.90
22680;DHT22;11507;44.858;10.374;2023-02-24T02:04:50;3.50;99.90
22680;DHT22;11507;44.858;10.374;2023-02-24T02:07:20;3.50;99.90
22680;DHT22;11507;44.858;10.374;2023-02-24T02:09:47;3.50;99.90
22680;DHT22;11507;44.858;10.374;2023-02-24T02:12:13;3.50;99.90
22680;DHT22;11507;44.858;10.374;2023-02-24T02:14:41;3.50;99.90
22680;DHT22;11507;44.858;10.374;2023-02-24T02:19:55;3.50;99.90
22680;DHT22;11507;44.858;10.374;2023-02-24T02:30:29;3.50;99.90
22680;DHT22;11507;44.858;10.374;2023-02-24T02:38:15;3.40;99.90
22680;DHT22;11507;44.858;10.374;2023-02-24T02:40:54;3.30;99.90
22680;DHT22;11507;44.858;10.374;2023-02-24T02:43:24;3.30;99.90
22680;DHT22;11507;44.858;10.374;2023-02-24T02:46:10;3.40;99.90
22680;DHT22;11507;44.858;10.374;2023-02-24T02:48:42;3.30;99.90
22680;DHT22;11507;44.858;10.374;2023-02-24T02:51:15;3.40;99.90
22680;DHT22;11507;44.858;10.374;2023-02-24T02:53:57;3.30;99.90
22680;DHT22;11507;44.858;10.374;2023-02-24T02:56:36;3.30;99.90
22680;DHT22;11507;44.858;10.374;2023-02-24T02:59:05;3.20;99.90
22680;DHT22;11507;44.858;10.374;2023-02-24T03:01:34;3.20;99.90
22680;DHT22;11507;44.858;10.374;2023-02-24T03:04:02;3.20;99.90
22680;DHT22;11507;44.858;10.374;2023-02-24T03:06:33;3.20;99.90
22680;DHT22;11507;44.858;10.374;2023-02-24T03:09:04;3.20;99.90
22680;DHT22;11507;44.858;10.374;2023-02-24T03:11:37;3.20;99.90
22680;DHT22;11507;44.858;10.374;2023-02-24T03:14:03;3.20;99.90
22680;DHT22;11507;44.858;10.374;2023-02-24T03:16:30;3.20;99.90
22680;DHT22;11507;44.858;10.374;2023-02-24T03:19:02;3.20;99.90
22680;DHT22;11507;44.858;10.374;2023-02-24T03:21:35;3.20;99.90
22680;DHT22;11507;44.858;10.374;2023-02-24T03:24:02;3.30;99.90
22680;DHT22;11507;44.858;10.374;2023-02-24T03:26:36;3.20;99.90
22680;DHT22;11507;44.858;10.374;2023-02-24T03:31:36;3.30;99.90
22680;DHT22;11507;44.858;10.374;2023-02-24T03:34:10;3.30;99.90
22680;DHT22;11507;44.858;10.374;2023-02-24T03:36:39;3.30;99.90
22680;DHT22;11507;44.858;10.374;2023-02-24T03:39:05;3.30;99.90
22680;DHT22;11507;44.858;10.374;2023-02-24T03:41:39;3.40;99.90
22680;DHT22;11507;44.858;10.374;2023-02-24T03:44:09;3.40;99.90
22680;DHT22;11507;44.858;10.374;2023-02-24T03:46:37;3.40;99.90
22680;DHT22;11507;44.858;10.374;2023-02-24T03:49:09;3.50;99.90
22680;DHT22;11507;44.858;10.374;2023-02-24T03:51:44;3.50;99.90
22680;DHT22;11507;44.858;10.374;2023-02-24T03:54:30;3.50;99.90
22680;DHT22;11507;44.858;10.374;2023-02-24T04:04:45;3.60;99.90
22680;DHT22;11507;44.858;10.374;2023-02-24T04:10:02;3.50;99.90
22680;DHT22;11507;44.858;10.374;2023-02-24T04:15:17;3.50;99.90
22680;DHT22;11507;44.858;10.374;2023-02-24T04:17:45;3.60;99.90
22680;DHT22;11507;44.858;10.374;2023-02-24T04:20:13;3.50;99.90
22680;DHT22;11507;44.858;10.374;2023-02-24T04:22:46;3.60;99.90
22680;DHT22;11507;44.858;10.374;2023-02-24T04:25:23;3.60;99.90
22680;DHT22;11507;44.858;10.374;2023-02-24T04:27:52;3.70;99.90
22680;DHT22;11507;44.858;10.374;2023-02-24T04:30:18;3.70;99.90
22680;DHT22;11507;44.858;10.374;2023-02-24T04:32:45;3.70;99.90
22680;DHT22;11507;44.858;10.374;2023-02-24T04:35:12;3.70;99.90
22680;DHT22;11507;44.858;10.374;2023-02-24T04:37:41;3.70;99.90
22680;DHT22;11507;44.858;10.374;2023-02-24T04:40:13;3.70;99.90
22680;DHT22;11507;44.858;10.374;2023-02-24T04:42:42;3.70;99.90
22680;DHT22;11507;44.858;10.374;2023-02-24T04:45:32;3.80;99.90
22680;DHT22;11507;44.858;10.374;2023-02-24T04:47:58;3.80;99.90
22680;DHT22;11507;44.858;10.374;2023-02-24T04:50:28;3.70;99.90
22680;DHT22;11507;44.858;10.374;2023-02-24T04:52:55;3.80;99.90
22680;DHT22;11507;44.858;10.374;2023-02-24T04:55:22;3.80;99.90
22680;DHT22;11507;44.858;10.374;2023-02-24T04:57:51;3.80;99.90
22680;DHT22;11507;44.858;10.374;2023-02-24T05:00:17;3.90;99.90
22680;DHT22;11507;44.858;10.374;2023-02-24T05:02:52;3.90;99.90
22680;DHT22;11507;44.858;10.374;2023-02-24T05:05:18;3.90;99.90
22680;DHT22;11507;44.858;10.374;2023-02-24T05:07:57;3.90;99.90
22680;DHT22;11507;44.858;10.374;2023-02-24T05:10:28;4.00;99.90
22680;DHT22;11507;44.858;10.374;2023-02-24T05:12:55;4.10;99.90
22680;DHT22;11507;44.858;10.374;2023-02-24T05:15:23;4.10;99.90
22680;DHT22;11507;44.858;10.374;2023-02-24T05:18:03;4.20;99.90
22680;DHT22;11507;44.858;10.374;2023-02-24T05:20:51;4.20;99.90
22680;DHT22;11507;44.858;10.374;2023-02-24T05:23:39;4.30;99.90
22680;DHT22;11507;44.858;10.374;2023-02-24T05:26:06;4.20;99.90
22680;DHT22;11507;44.858;10.374;2023-02-24T05:28:34;4.30;99.90
22680;DHT22;11507;44.858;10.374;2023-02-24T05:31:07;4.30;99.90
22680;DHT22;11507;44.858;10.374;2023-02-24T05:33:34;4.20;99.90
22680;DHT22;11507;44.858;10.374;2023-02-24T05:36:03;4.30;99.90
22680;DHT22;11507;44.858;10.374;2023-02-24T05:38:30;4.20;99.90
22680;DHT22;11507;44.858;10.374;2023-02-24T05:41:03;4.30;99.90
22680;DHT22;11507;44.858;10.374;2023-02-24T05:43:29;4.30;99.90
22680;DHT22;11507;44.858;10.374;2023-02-24T05:45:59;4.30;99.90
22680;DHT22;11507;44.858;10.374;2023-02-24T05:48:27;4.30;99.90
22680;DHT22;11507;44.858;10.374;2023-02-24T05:50:53;4.30;99.90
22680;DHT22;11507;44.858;10.374;2023-02-24T05:53:19;4.30;99.90
22680;DHT22;11507;44.858;10.374;2023-02-24T05:55:46;4.30;99.90
22680;DHT22;11507;44.858;10.374;2023-02-24T05:58:11;4.30;99.90
22680;DHT22;11507;44.858;10.374;2023-02-24T06:00:37;4.30;99.90
22680;DHT22;11507;44.858;10.374;2023-02-24T06:03:04;4.30;99.90
22680;DHT22;11507;44.858;10.374;2023-02-24T06:05:33;4.20;99.90
22680;DHT22;11507;44.858;10.374;2023-02-24T06:08:00;4.20;99.90
22680;DHT22;11507;44.858;10.374;2023-02-24T06:10:32;4.20;99.90
22680;DHT22;11507;44.858;10.374;2023-02-24T06:13:00;4.20;99.90
22680;DHT22;11507;44.858;10.374;2023-02-24T06:15:27;4.20;99.90
22680;DHT22;11507;44.858;10.374;2023-02-24T06:17:54;4.10;99.90
22680;DHT22;11507;44.858;10.374;2023-02-24T06:20:25;4.10;99.90
22680;DHT22;11507;44.858;10.374;2023-02-24T06:22:52;4.10;99.90
22680;DHT22;11507;44.858;10.374;2023-02-24T06:25:22;4.10;99.90
22680;DHT22;11507;44.858;10.374;2023-02-24T06:27:51;4.20;99.90
22680;DHT22;11507;44.858;10.374;2023-02-24T06:30:19;4.20;99.90
22680;DHT22;11507;44.858;10.374;2023-02-24T06:32:48;4.20;99.90
22680;DHT22;11507;44.858;10.374;2023-02-24T06:35:14;4.30;99.90
22680;DHT22;11507;44.858;10.374;2023-02-24T06:37:40;4.30;99.90
22680;DHT22;11507;44.858;10.374;2023-02-24T06:40:06;4.30;99.90
22680;DHT22;11507;44.858;10.374;2023-02-24T06:42:48;4.20;99.90
22680;DHT22;11507;44.858;10.374;2023-02-24T06:45:15;4.20;99.90
22680;DHT22;11507;44.858;10.374;2023-02-24T06:47:42;4.20;99.90
22680;DHT22;11507;44.858;10.374;2023-02-24T06:50:08;4.30;99.90
22680;DHT22;11507;44.858;10.374;2023-02-24T06:52:34;4.30;99.90
22680;DHT22;11507;44.858;10.374;2023-02-24T06:55:01;4.30;99.90
22680;DHT22;11507;44.858;10.374;2023-02-24T06:57:29;4.30;99.90
22680;DHT22;11507;44.858;10.374;2023-02-24T06:59:59;4.30;99.90
22680;DHT22;11507;44.858;10.374;2023-02-24T07:02:26;4.50;99.90
22680;DHT22;11507;44.858;10.374;2023-02-24T07:05:04;4.50;99.90
22680;DHT22;11507;44.858;10.374;2023-02-24T07:07:30;4.60;99.90
22680;DHT22;11507;44.858;10.374;2023-02-24T07:09:57;4.70;99.90
22680;DHT22;11507;44.858;10.374;2023-02-24T07:12:23;4.80;99.90
22680;DHT22;11507;44.858;10.374;2023-02-24T07:14:49;4.90;99.90
22680;DHT22;11507;44.858;10.374;2023-02-24T07:17:18;5.10;99.90
22680;DHT22;11507;44.858;10.374;2023-02-24T07:19:48;5.30;99.90
22680;DHT22;11507;44.858;10.374;2023-02-24T07:22:14;5.50;99.90
22680;DHT22;11507;44.858;10.374;2023-02-24T07:24:41;5.70;99.90
22680;DHT22;11507;44.858;10.374;2023-02-24T07:27:11;5.90;99.90
22680;DHT22;11507;44.858;10.374;2023-02-24T07:29:37;6.20;99.90
22680;DHT22;11507;44.858;10.374;2023-02-24T07:32:04;6.40;99.90
22680;DHT22;11507;44.858;10.374;2023-02-24T07:34:31;6.50;99.90
22680;DHT22;11507;44.858;10.374;2023-02-24T07:36:58;6.70;99.90
22680;DHT22;11507;44.858;10.374;2023-02-24T07:39:24;6.80;99.90
22680;DHT22;11507;44.858;10.374;2023-02-24T07:41:50;7.00;99.90
22680;DHT22;11507;44.858;10.374;2023-02-24T07:44:17;7.20;99.90
22680;DHT22;11507;44.858;10.374;2023-02-24T07:46:43;7.30;99.90
22680;DHT22;11507;44.858;10.374;2023-02-24T07:49:13;7.50;99.90
22680;DHT22;11507;44.858;10.374;2023-02-24T07:51:40;7.80;99.90
22680;DHT22;11507;44.858;10.374;2023-02-24T07:54:08;8.10;99.90
22680;DHT22;11507;44.858;10.374;2023-02-24T07:56:36;8.40;99.90
22680;DHT22;11507;44.858;10.374;2023-02-24T07:59:10;8.60;99.90
22680;DHT22;11507;44.858;10.374;2023-02-24T08:01:41;8.90;99.90
22680;DHT22;11507;44.858;10.374;2023-02-24T08:04:17;9.10;99.90
22680;DHT22;11507;44.858;10.374;2023-02-24T08:06:44;9.30;99.90
22680;DHT22;11507;44.858;10.374;2023-02-24T08:09:12;9.50;99.90
22680;DHT22;11507;44.858;10.374;2023-02-24T08:11:43;9.60;99.90
22680;DHT22;11507;44.858;10.374;2023-02-24T08:14:13;9.70;99.90
22680;DHT22;11507;44.858;10.374;2023-02-24T08:16:43;9.60;99.90
22680;DHT22;11507;44.858;10.374;2023-02-24T08:19:13;9.60;99.90
22680;DHT22;11507;44.858;10.374;2023-02-24T08:21:39;9.70;99.90
22680;DHT22;11507;44.858;10.374;2023-02-24T08:24:06;9.70;99.90
22680;DHT22;11507;44.858;10.374;2023-02-24T08:26:51;9.70;99.90
22680;DHT22;11507;44.858;10.374;2023-02-24T08:29:29;9.80;99.90
22680;DHT22;11507;44.858;10.374;2023-02-24T08:31:56;9.90;99.90
22680;DHT22;11507;44.858;10.374;2023-02-24T08:34:22;10.00;99.90
22680;DHT22;11507;44.858;10.374;2023-02-24T08:36:51;10.10;99.90
22680;DHT22;11507;44.858;10.374;2023-02-24T08:39:20;10.20;99.90
22680;DHT22;11507;44.858;10.374;2023-02-24T08:41:47;10.40;99.90
22680;DHT22;11507;44.858;10.374;2023-02-24T08:44:16;10.40;99.90
22680;DHT22;11507;44.858;10.374;2023-02-24T08:46:47;10.60;99.90
22680;DHT22;11507;44.858;10.374;2023-02-24T08:49:17;10.80;99.90
22680;DHT22;11507;44.858;10.374;2023-02-24T08:51:43;11.10;99.90
22680;DHT22;11507;44.858;10.374;2023-02-24T08:54:15;11.50;99.90
22680;DHT22;11507;44.858;10.374;2023-02-24T08:56:42;12.00;99.90
22680;DHT22;11507;44.858;10.374;2023-02-24T08:59:09;12.40;99.90
22680;DHT22;11507;44.858;10.374;2023-02-24T09:01:54;12.90;99.90
22680;DHT22;11507;44.858;10.374;2023-02-24T09:04:39;13.50;99.90
22680;DHT22;11507;44.858;10.374;2023-02-24T09:07:13;14.20;99.90
22680;DHT22;11507;44.858;10.374;2023-02-24T09:09:40;14.70;99.90
22680;DHT22;11507;44.858;10.374;2023-02-24T09:12:06;14.90;99.90
22680;DHT22;11507;44.858;10.374;2023-02-24T09:14:33;15.20;99.90
22680;DHT22;11507;44.858;10.374;2023-02-24T09:17:05;15.40;99.90
22680;DHT22;11507;44.858;10.374;2023-02-24T09:22:18;16.50;99.90
22680;DHT22;11507;44.858;10.374;2023-02-24T09:30:33;17.90;99.90
22680;DHT22;11507;44.858;10.374;2023-02-24T09:33:12;18.50;99.90
22680;DHT22;11507;44.858;10.374;2023-02-24T09:35:43;18.70;99.90
22680;DHT22;11507;44.858;10.374;2023-02-24T09:38:12;18.70;99.90
22680;DHT22;11507;44.858;10.374;2023-02-24T09:40:44;18.90;99.90
22680;DHT22;11507;44.858;10.374;2023-02-24T09:43:21;19.30;99.90
22680;DHT22;11507;44.858;10.374;2023-02-24T09:45:51;19.80;99.90
22680;DHT22;11507;44.858;10.374;2023-02-24T09:48:20;20.30;99.90
22680;DHT22;11507;44.858;10.374;2023-02-24T09:50:47;20.60;99.90
22680;DHT22;11507;44.858;10.374;2023-02-24T09:53:27;20.80;99.90
22680;DHT22;11507;44.858;10.374;2023-02-24T10:01:38;21.80;99.90
22680;DHT22;11507;44.858;10.374;2023-02-24T10:06:40;22.20;99.60
22680;DHT22;11507;44.858;10.374;2023-02-24T10:11:58;21.80;98.60
22680;DHT22;11507;44.858;10.374;2023-02-24T10:14:37;22.00;99.90
22680;DHT22;11507;44.858;10.374;2023-02-24T10:17:08;22.60;99.90
22680;DHT22;11507;44.858;10.374;2023-02-24T10:19:50;23.30;99.90
22680;DHT22;11507;44.858;10.374;2023-02-24T10:22:27;23.90;97.30
22680;DHT22;11507;44.858;10.374;2023-02-24T10:25:18;24.20;96.70
22680;DHT22;11507;44.858;10.374;2023-02-24T10:33:12;24.30;92.50
22680;DHT22;11507;44.858;10.374;2023-02-24T10:35:41;23.90;92.80
22680;DHT22;11507;44.858;10.374;2023-02-24T10:38:07;23.80;94.90
22680;DHT22;11507;44.858;10.374;2023-02-24T10:40:45;24.30;94.60
22680;DHT22;11507;44.858;10.374;2023-02-24T10:43:15;24.70;92.60
22680;DHT22;11507;44.858;10.374;2023-02-24T10:45:43;25.10;92.60
22680;DHT22;11507;44.858;10.374;2023-02-24T10:48:15;25.10;91.80
22680;DHT22;11507;44.858;10.374;2023-02-24T10:50:50;25.10;92.00
22680;DHT22;11507;44.858;10.374;2023-02-24T10:53:19;25.40;92.60
22680;DHT22;11507;44.858;10.374;2023-02-24T10:56:03;25.90;90.90
22680;DHT22;11507;44.858;10.374;2023-02-24T10:58:57;25.90;89.10
22680;DHT22;11507;44.858;10.374;2023-02-24T11:01:43;26.20;90.50
22680;DHT22;11507;44.858;10.374;2023-02-24T11:04:19;25.80;86.10
22680;DHT22;11507;44.858;10.374;2023-02-24T11:07:02;25.00;85.80
22680;DHT22;11507;44.858;10.374;2023-02-24T11:09:34;24.00;87.50
22680;DHT22;11507;44.858;10.374;2023-02-24T11:12:15;23.20;90.00
22680;DHT22;11507;44.858;10.374;2023-02-24T11:15:05;22.20;90.80
22680;DHT22;11507;44.858;10.374;2023-02-24T11:17:56;21.10;93.80
22680;DHT22;11507;44.858;10.374;2023-02-24T11:22:48;21.30;97.60
22680;DHT22;11507;44.858;10.374;2023-02-24T11:27:45;21.50;96.70
22680;DHT22;11507;44.858;10.374;2023-02-24T11:30:14;21.20;96.30
22680;DHT22;11507;44.858;10.374;2023-02-24T11:35:28;20.50;97.90
22680;DHT22;11507;44.858;10.374;2023-02-24T11:40:27;19.30;99.90
22680;DHT22;11507;44.858;10.374;2023-02-24T11:42:56;18.70;99.90
22680;DHT22;11507;44.858;10.374;2023-02-24T11:48:16;18.40;99.90
22680;DHT22;11507;44.858;10.374;2023-02-24T11:50:45;18.20;99.90
22680;DHT22;11507;44.858;10.374;2023-02-24T11:53:14;18.20;99.90
22680;DHT22;11507;44.858;10.374;2023-02-24T11:55:44;18.30;99.90
22680;DHT22;11507;44.858;10.374;2023-02-24T11:58:16;18.50;99.90
22680;DHT22;11507;44.858;10.374;2023-02-24T12:00:48;18.70;99.90
22680;DHT22;11507;44.858;10.374;2023-02-24T12:03:36;19.10;99.90
22680;DHT22;11507;44.858;10.374;2023-02-24T12:06:14;19.60;99.90
22680;DHT22;11507;44.858;10.374;2023-02-24T12:08:41;19.90;99.90
22680;DHT22;11507;44.858;10.374;2023-02-24T12:13:53;20.50;99.90
22680;DHT22;11507;44.858;10.374;2023-02-24T12:16:27;21.30;99.90
22680;DHT22;11507;44.858;10.374;2023-02-24T12:18:57;21.40;98.60
22680;DHT22;11507;44.858;10.374;2023-02-24T12:21:42;21.10;99.60
22680;DHT22;11507;44.858;10.374;2023-02-24T12:24:10;20.90;99.90
22680;DHT22;11507;44.858;10.374;2023-02-24T12:31:42;20.80;99.90
22680;DHT22;11507;44.858;10.374;2023-02-24T12:34:11;21.20;99.90
22680;DHT22;11507;44.858;10.374;2023-02-24T12:36:55;22.20;99.90
22680;DHT22;11507;44.858;10.374;2023-02-24T12:41:57;24.20;98.70
22680;DHT22;11507;44.858;10.374;2023-02-24T12:46:54;25.50;92.60
22680;DHT22;11507;44.858;10.374;2023-02-24T12:52:08;24.60;88.30
22680;DHT22;11507;44.858;10.374;2023-02-24T12:57:25;23.20;90.00
22680;DHT22;11507;44.858;10.374;2023-02-24T12:59:54;22.70;90.70
22680;DHT22;11507;44.858;10.374;2023-02-24T13:04:54;22.60;93.20
22680;DHT22;11507;44.858;10.374;2023-02-24T13:12:41;24.80;90.40
22680;DHT22;11507;44.858;10.374;2023-02-24T13:15:21;25.60;88.30
22680;DHT22;11507;44.858;10.374;2023-02-24T13:17:48;25.90;86.30
22680;DHT22;11507;44.858;10.374;2023-02-24T13:20:26;25.90;84.50
22680;DHT22;11507;44.858;10.374;2023-02-24T13:22:53;26.20;85.90
22680;DHT22;11507;44.858;10.374;2023-02-24T13:25:20;25.90;84.00
22680;DHT22;11507;44.858;10.374;2023-02-24T13:27:55;25.70;83.30
22680;DHT22;11507;44.858;10.374;2023-02-24T13:33:50;25.50;82.00
22680;DHT22;11507;44.858;10.374;2023-02-24T13:35:45;25.20;81.90
22680;DHT22;11507;44.858;10.374;2023-02-24T13:38:21;24.60;82.50
22680;DHT22;11507;44.858;10.374;2023-02-24T13:40:50;23.90;83.80
22680;DHT22;11507;44.858;10.374;2023-02-24T13:43:20;23.10;86.10
22680;DHT22;11507;44.858;10.374;2023-02-24T13:45:52;22.40;86.60
22680;DHT22;11507;44.858;10.374;2023-02-24T13:56:40;20.10;91.40
22680;DHT22;11507;44.858;10.374;2023-02-24T14:01:54;19.30;93.30
22680;DHT22;11507;44.858;10.374;2023-02-24T14:04:22;19.00;94.80
22680;DHT22;11507;44.858;10.374;2023-02-24T14:09:43;18.60;97.30
22680;DHT22;11507;44.858;10.374;2023-02-24T14:12:28;18.30;98.40
22680;DHT22;11507;44.858;10.374;2023-02-24T14:14:56;18.00;99.70
22680;DHT22;11507;44.858;10.374;2023-02-24T14:17:27;17.80;99.90
22680;DHT22;11507;44.858;10.374;2023-02-24T14:19:54;17.60;99.90
22680;DHT22;11507;44.858;10.374;2023-02-24T14:22:20;17.50;99.90
22680;DHT22;11507;44.858;10.374;2023-02-24T14:24:46;17.30;99.90
22680;DHT22;11507;44.858;10.374;2023-02-24T14:27:23;17.30;99.90
22680;DHT22;11507;44.858;10.374;2023-02-24T14:29:51;17.30;99.90
22680;DHT22;11507;44.858;10.374;2023-02-24T14:32:19;17.20;99.90
22680;DHT22;11507;44.858;10.374;2023-02-24T14:34:45;17.30;99.90
22680;DHT22;11507;44.858;10.374;2023-02-24T14:37:12;17.30;99.90
22680;DHT22;11507;44.858;10.374;2023-02-24T14:39:51;17.10;99.90
22680;DHT22;11507;44.858;10.374;2023-02-24T14:42:18;17.00;99.90
22680;DHT22;11507;44.858;10.374;2023-02-24T14:44:48;17.00;99.90
22680;DHT22;11507;44.858;10.374;2023-02-24T14:47:15;16.90;99.90
22680;DHT22;11507;44.858;10.374;2023-02-24T14:49:50;16.80;99.90
22680;DHT22;11507;44.858;10.374;2023-02-24T14:52:18;16.60;99.90
22680;DHT22;11507;44.858;10.374;2023-02-24T14:57:41;16.50;99.90
22680;DHT22;11507;44.858;10.374;2023-02-24T15:00:11;16.40;99.90
22680;DHT22;11507;44.858;10.374;2023-02-24T15:02:45;16.40;99.90
22680;DHT22;11507;44.858;10.374;2023-02-24T15:05:12;16.30;99.90
22680;DHT22;11507;44.858;10.374;2023-02-24T15:07:39;16.30;99.90
22680;DHT22;11507;44.858;10.374;2023-02-24T15:10:15;16.30;99.90
22680;DHT22;11507;44.858;10.374;2023-02-24T15:12:43;16.20;99.90
22680;DHT22;11507;44.858;10.374;2023-02-24T15:17:42;16.30;99.90
22680;DHT22;11507;44.858;10.374;2023-02-24T15:20:27;16.30;99.90
22680;DHT22;11507;44.858;10.374;2023-02-24T15:22:53;16.40;99.90
22680;DHT22;11507;44.858;10.374;2023-02-24T15:25:21;16.40;99.90
22680;DHT22;11507;44.858;10.374;2023-02-24T15:27:52;16.40;99.90
22680;DHT22;11507;44.858;10.374;2023-02-24T15:30:29;16.30;99.90
22680;DHT22;11507;44.858;10.374;2023-02-24T15:32:59;16.30;99.90
22680;DHT22;11507;44.858;10.374;2023-02-24T15:35:26;16.30;99.90
22680;DHT22;11507;44.858;10.374;2023-02-24T15:37:52;16.30;99.90
22680;DHT22;11507;44.858;10.374;2023-02-24T15:40:20;16.30;99.90
22680;DHT22;11507;44.858;10.374;2023-02-24T15:42:50;16.20;99.90
22680;DHT22;11507;44.858;10.374;2023-02-24T15:45:33;16.10;99.90
22680;DHT22;11507;44.858;10.374;2023-02-24T15:47:59;16.00;99.90
22680;DHT22;11507;44.858;10.374;2023-02-24T15:50:26;15.90;99.90
22680;DHT22;11507;44.858;10.374;2023-02-24T15:52:52;15.80;99.90
22680;DHT22;11507;44.858;10.374;2023-02-24T15:55:18;15.70;99.90
22680;DHT22;11507;44.858;10.374;2023-02-24T15:57:45;15.60;99.90
22680;DHT22;11507;44.858;10.374;2023-02-24T16:00:15;15.40;99.90
22680;DHT22;11507;44.858;10.374;2023-02-24T16:02:42;15.30;99.90
22680;DHT22;11507;44.858;10.374;2023-02-24T16:05:08;15.20;99.90
22680;DHT22;11507;44.858;10.374;2023-02-24T16:07:35;15.10;99.90
22680;DHT22;11507;44.858;10.374;2023-02-24T16:10:02;15.00;99.90
22680;DHT22;11507;44.858;10.374;2023-02-24T16:12:28;14.90;99.90
22680;DHT22;11507;44.858;10.374;2023-02-24T16:14:56;14.80;99.90
22680;DHT22;11507;44.858;10.374;2023-02-24T16:17:33;14.80;99.90
22680;DHT22;11507;44.858;10.374;2023-02-24T16:20:00;14.70;99.90
22680;DHT22;11507;44.858;10.374;2023-02-24T16:22:26;14.60;99.90
22680;DHT22;11507;44.858;10.374;2023-02-24T16:24:52;14.50;99.90
22680;DHT22;11507;44.858;10.374;2023-02-24T16:27:19;14.50;99.90
22680;DHT22;11507;44.858;10.374;2023-02-24T16:29:45;14.40;99.90
22680;DHT22;11507;44.858;10.374;2023-02-24T16:32:12;14.30;99.90
22680;DHT22;11507;44.858;10.374;2023-02-24T16:34:38;14.20;99.90
22680;DHT22;11507;44.858;10.374;2023-02-24T16:37:09;14.10;99.90
22680;DHT22;11507;44.858;10.374;2023-02-24T16:39:39;14.20;99.90
22680;DHT22;11507;44.858;10.374;2023-02-24T16:42:05;14.00;99.90
22680;DHT22;11507;44.858;10.374;2023-02-24T16:44:32;13.90;99.90
22680;DHT22;11507;44.858;10.374;2023-02-24T16:46:58;13.90;99.90
22680;DHT22;11507;44.858;10.374;2023-02-24T16:49:24;13.80;99.90
22680;DHT22;11507;44.858;10.374;2023-02-24T16:51:50;13.70;99.90
22680;DHT22;11507;44.858;10.374;2023-02-24T16:54:16;13.70;99.90
22680;DHT22;11507;44.858;10.374;2023-02-24T16:56:42;13.50;99.90
22680;DHT22;11507;44.858;10.374;2023-02-24T16:59:09;13.50;99.90
22680;DHT22;11507;44.858;10.374;2023-02-24T17:01:35;13.50;99.90
22680;DHT22;11507;44.858;10.374;2023-02-24T17:04:01;13.40;99.90
22680;DHT22;11507;44.858;10.374;2023-02-24T17:06:29;13.30;99.90
22680;DHT22;11507;44.858;10.374;2023-02-24T17:08:56;13.20;99.90
22680;DHT22;11507;44.858;10.374;2023-02-24T17:11:22;13.10;99.90
22680;DHT22;11507;44.858;10.374;2023-02-24T17:13:49;13.00;99.90
22680;DHT22;11507;44.858;10.374;2023-02-24T17:16:16;13.00;99.90
22680;DHT22;11507;44.858;10.374;2023-02-24T17:18:42;12.90;99.90
22680;DHT22;11507;44.858;10.374;2023-02-24T17:21:08;12.80;99.90
22680;DHT22;11507;44.858;10.374;2023-02-24T17:23:36;12.80;99.90
22680;DHT22;11507;44.858;10.374;2023-02-24T17:26:01;12.70;99.90
22680;DHT22;11507;44.858;10.374;2023-02-24T17:28:27;12.60;99.90
22680;DHT22;11507;44.858;10.374;2023-02-24T17:30:53;12.60;99.90
22680;DHT22;11507;44.858;10.374;2023-02-24T17:33:19;12.50;99.90
22680;DHT22;11507;44.858;10.374;2023-02-24T17:35:46;12.40;99.90
22680;DHT22;11507;44.858;10.374;2023-02-24T17:38:15;12.30;99.90
22680;DHT22;11507;44.858;10.374;2023-02-24T17:40:42;12.20;99.90